createdAt,value
2019-05-09T00:01:14.675Z,84.70
2019-05-09T00:03:44.476Z,84.80
2019-05-09T00:06:13.835Z,84.90
2019-05-09T00:08:44.181Z,85.00
2019-05-09T00:11:14.528Z,85.40
2019-05-09T00:13:44.046Z,85.60
2019-05-09T00:16:14.555Z,86.00
2019-05-09T00:18:44.253Z,86.30
2019-05-09T00:21:27.107Z,86.50
2019-05-09T00:23:56.177Z,86.60
2019-05-09T00:26:25.232Z,87.00
2019-05-09T00:28:55.948Z,86.80
2019-05-09T00:31:26.631Z,86.60
2019-05-09T00:33:57.339Z,86.80
2019-05-09T00:36:26.394Z,86.80
2019-05-09T00:38:55.467Z,86.80
2019-05-09T00:41:24.519Z,86.90
2019-05-09T00:43:55.216Z,86.80
2019-05-09T00:46:28.638Z,86.80
2019-05-09T00:48:59.374Z,87.00
2019-05-09T00:51:28.482Z,87.10
2019-05-09T00:53:57.542Z,87.10
2019-05-09T00:56:27.718Z,87.00
2019-05-09T00:58:56.780Z,87.20
2019-05-09T01:01:25.840Z,87.10
2019-05-09T01:03:54.922Z,87.00
2019-05-09T01:06:24.284Z,87.10
2019-05-09T01:08:53.866Z,87.10
2019-05-09T01:11:24.352Z,87.20
2019-05-09T01:13:54.441Z,87.10
2019-05-09T01:16:24.271Z,87.10
2019-05-09T01:18:54.640Z,87.20
2019-05-09T01:21:24.163Z,87.40
2019-05-09T01:23:54.158Z,87.40
2019-05-09T01:26:24.218Z,87.40
2019-05-09T01:28:54.188Z,87.60
2019-05-09T01:31:24.282Z,87.80
2019-05-09T01:33:55.303Z,88.00
2019-05-09T01:36:24.747Z,88.10
2019-05-09T01:38:54.084Z,88.10
2019-05-09T01:41:30.479Z,88.10
2019-05-09T01:43:54.127Z,88.20
2019-05-09T01:46:23.697Z,88.30
2019-05-09T01:48:53.948Z,88.30
2019-05-09T01:51:23.567Z,88.40
2019-05-09T01:53:54.395Z,88.30
2019-05-09T01:56:23.735Z,88.30
2019-05-09T01:58:53.913Z,88.70
2019-05-09T02:01:24.153Z,88.60
2019-05-09T02:03:53.849Z,88.80
2019-05-09T02:06:24.328Z,89.00
2019-05-09T02:08:54.573Z,89.10
2019-05-09T02:11:28.208Z,89.10
2019-05-09T02:13:54.792Z,89.10
2019-05-09T02:16:43.227Z,89.10
2019-05-09T02:19:14.147Z,89.20
2019-05-09T02:21:45.206Z,89.30
2019-05-09T02:24:14.252Z,89.20
2019-05-09T02:26:43.940Z,89.20
2019-05-09T02:29:13.842Z,89.00
2019-05-09T02:31:44.506Z,88.80
2019-05-09T02:34:15.240Z,89.50
2019-05-09T02:36:44.512Z,88.60
2019-05-09T02:39:13.576Z,88.50
2019-05-09T02:41:59.546Z,88.50
2019-05-09T02:44:13.448Z,88.40
2019-05-09T02:46:44.159Z,88.40
2019-05-09T02:49:13.217Z,88.40
2019-05-09T02:51:42.357Z,88.30
2019-05-09T02:54:11.403Z,88.30
2019-05-09T02:56:40.552Z,88.20
2019-05-09T02:59:11.310Z,88.20
2019-05-09T03:01:44.791Z,88.10
2019-05-09T03:04:13.857Z,88.10
2019-05-09T03:06:42.991Z,88.50
2019-05-09T03:09:12.120Z,88.20
2019-05-09T03:11:41.406Z,88.10
2019-05-09T03:14:10.537Z,88.10
2019-05-09T03:16:40.100Z,88.10
2019-05-09T03:19:09.523Z,88.90
2019-05-09T03:21:40.308Z,88.20
2019-05-09T03:24:10.129Z,88.30
2019-05-09T03:26:41.128Z,88.10
2019-05-09T03:29:21.042Z,88.10
2019-05-09T03:31:50.663Z,88.10
2019-05-09T03:34:19.969Z,88.10
2019-05-09T03:36:49.137Z,88.10
2019-05-09T03:39:18.618Z,88.00
2019-05-09T03:41:48.763Z,88.00
2019-05-09T03:44:18.068Z,87.90
2019-05-09T03:46:48.797Z,88.00
2019-05-09T03:49:19.613Z,87.80
2019-05-09T03:51:48.689Z,88.00
2019-05-09T03:54:18.481Z,87.90
2019-05-09T03:56:49.519Z,87.90
2019-05-09T03:59:18.611Z,87.80
2019-05-09T04:01:50.157Z,87.70
2019-05-09T04:04:19.580Z,87.60
2019-05-09T04:06:49.396Z,87.60
2019-05-09T04:09:18.467Z,87.60
2019-05-09T04:11:48.510Z,87.50
2019-05-09T04:14:25.203Z,87.50
2019-05-09T04:16:54.258Z,87.40
2019-05-09T04:19:23.319Z,87.40
2019-05-09T04:21:52.376Z,87.20
2019-05-09T04:24:22.206Z,87.20
2019-05-09T04:26:52.918Z,87.00
2019-05-09T04:29:21.975Z,87.00
2019-05-09T04:31:51.037Z,86.80
2019-05-09T04:34:20.098Z,86.70
2019-05-09T04:36:49.176Z,86.60
2019-05-09T04:39:23.398Z,86.40
2019-05-09T04:41:49.088Z,86.20
2019-05-09T04:44:22.589Z,86.10
2019-05-09T04:46:54.189Z,86.00
2019-05-09T04:49:22.456Z,85.80
2019-05-09T04:51:51.594Z,85.90
2019-05-09T04:54:20.684Z,85.70
2019-05-09T04:56:49.746Z,85.80
2019-05-09T04:59:18.800Z,85.60
2019-05-09T05:01:49.524Z,85.40
2019-05-09T05:04:19.767Z,85.10
2019-05-09T05:06:48.831Z,84.80
2019-05-09T05:09:21.169Z,84.40
2019-05-09T05:11:49.175Z,84.10
2019-05-09T05:14:21.767Z,83.90
2019-05-09T05:16:54.017Z,83.60
2019-05-09T05:19:23.389Z,83.40
2019-05-09T05:21:52.465Z,83.20
2019-05-09T05:24:23.171Z,82.90
2019-05-09T05:26:52.260Z,82.70
2019-05-09T05:29:21.399Z,82.50
2019-05-09T05:31:51.715Z,82.40
2019-05-09T05:34:22.481Z,82.20
2019-05-09T05:36:51.628Z,82.00
2019-05-09T05:39:20.847Z,81.80
2019-05-09T05:41:49.990Z,81.60
2019-05-09T05:44:19.056Z,81.30
2019-05-09T05:46:50.842Z,81.10
2019-05-09T05:49:20.765Z,80.90
2019-05-09T05:51:49.908Z,80.80
2019-05-09T05:54:23.151Z,80.40
2019-05-09T05:56:52.230Z,80.20
2019-05-09T05:59:21.431Z,79.90
2019-05-09T06:01:50.578Z,79.70
2019-05-09T06:04:19.724Z,79.50
2019-05-09T06:06:48.844Z,79.40
2019-05-09T06:09:18.909Z,79.10
2019-05-09T06:11:48.709Z,78.90
2019-05-09T06:14:18.568Z,78.70
2019-05-09T06:16:48.653Z,78.60
2019-05-09T06:19:18.265Z,78.50
2019-05-09T06:21:49.263Z,78.20
2019-05-09T06:24:18.573Z,78.20
2019-05-09T06:26:47.990Z,78.10
2019-05-09T06:29:17.959Z,78.00
2019-05-09T06:31:48.468Z,77.90
2019-05-09T06:34:18.829Z,77.70
2019-05-09T06:36:49.055Z,77.50
2019-05-09T06:39:18.351Z,77.50
2019-05-09T06:41:48.318Z,77.40
2019-05-09T06:44:20.674Z,77.30
2019-05-09T06:46:51.628Z,77.40
2019-05-09T06:49:28.404Z,77.40
2019-05-09T06:51:53.125Z,77.50
2019-05-09T06:54:22.202Z,77.50
2019-05-09T06:56:51.281Z,77.50
2019-05-09T06:59:20.425Z,77.50
2019-05-09T07:01:57.625Z,77.40
2019-05-09T07:04:28.355Z,77.30
2019-05-09T07:07:14.300Z,77.10
2019-05-09T07:09:48.140Z,76.90
2019-05-09T07:12:18.069Z,76.70
2019-05-09T07:14:48.641Z,76.40
2019-05-09T07:17:18.531Z,76.00
2019-05-09T07:19:48.839Z,75.90
2019-05-09T07:22:20.073Z,75.70
2019-05-09T07:25:11.118Z,75.40
2019-05-09T07:27:41.363Z,75.10
2019-05-09T07:30:21.487Z,74.80
2019-05-09T07:33:01.306Z,74.50
2019-05-09T07:35:30.387Z,74.30
2019-05-09T07:37:59.513Z,74.20
2019-05-09T07:40:30.663Z,74.10
2019-05-09T07:42:59.461Z,74.20
2019-05-09T07:45:28.528Z,74.10
2019-05-09T07:47:58.393Z,74.00
2019-05-09T07:50:27.883Z,74.00
2019-05-09T07:52:58.140Z,73.90
2019-05-09T07:55:27.642Z,73.90
2019-05-09T07:57:58.987Z,73.60
2019-05-09T08:00:34.986Z,73.20
2019-05-09T08:03:04.070Z,72.50
2019-05-09T08:05:33.373Z,72.50
2019-05-09T08:08:02.463Z,72.30
2019-05-09T08:10:33.254Z,71.80
2019-05-09T08:13:02.426Z,70.60
2019-05-09T08:15:31.502Z,69.90
2019-05-09T08:18:00.654Z,69.50
2019-05-09T08:20:29.727Z,69.30
2019-05-09T08:23:02.079Z,68.90
2019-05-09T08:25:29.580Z,68.80
2019-05-09T08:27:59.005Z,68.50
2019-05-09T08:30:35.347Z,68.00
2019-05-09T08:32:59.893Z,67.90
2019-05-09T08:35:29.286Z,67.80
2019-05-09T08:37:58.651Z,67.50
2019-05-09T08:40:28.551Z,67.30
2019-05-09T08:42:58.830Z,66.80
2019-05-09T08:45:31.321Z,66.10
2019-05-09T08:47:59.332Z,65.70
2019-05-09T08:50:30.155Z,65.50
2019-05-09T08:52:59.460Z,64.70
2019-05-09T08:55:28.529Z,65.40
2019-05-09T08:57:58.851Z,64.30
2019-05-09T09:00:28.402Z,64.80
2019-05-09T09:02:57.703Z,63.80
2019-05-09T09:05:28.872Z,63.20
2019-05-09T09:07:58.059Z,62.40
2019-05-09T09:10:28.994Z,61.50
2019-05-09T09:12:58.364Z,60.90
2019-05-09T09:15:50.130Z,61.00
2019-05-09T09:17:58.370Z,61.00
2019-05-09T09:20:28.789Z,61.00
2019-05-09T09:22:58.478Z,61.70
2019-05-09T09:25:28.747Z,61.70
2019-05-09T09:27:58.448Z,61.70
2019-05-09T09:30:29.290Z,61.60
2019-05-09T09:32:58.900Z,61.40
2019-05-09T09:35:28.146Z,61.20
2019-05-09T09:37:58.178Z,60.70
2019-05-09T09:40:28.059Z,60.20
2019-05-09T09:42:58.213Z,59.60
2019-05-09T09:45:28.201Z,58.90
2019-05-09T09:47:59.267Z,58.30
2019-05-09T09:50:28.666Z,58.00
2019-05-09T09:52:58.897Z,58.10
2019-05-09T09:55:28.304Z,58.00
2019-05-09T09:57:57.963Z,57.70
2019-05-09T10:01:03.514Z,57.10
2019-05-09T10:03:34.122Z,56.60
2019-05-09T10:06:03.328Z,55.90
2019-05-09T10:08:32.636Z,55.40
2019-05-09T10:11:01.763Z,55.20
2019-05-09T10:13:30.856Z,55.00
2019-05-09T10:16:26.575Z,54.60
2019-05-09T10:18:48.424Z,54.50
2019-05-09T10:21:30.935Z,54.10
2019-05-09T10:24:00.066Z,54.00
2019-05-09T10:26:29.236Z,53.80
2019-05-09T10:28:58.289Z,53.50
2019-05-09T10:31:28.290Z,53.30
2019-05-09T10:33:58.216Z,53.70
2019-05-09T10:36:28.000Z,53.00
2019-05-09T10:38:58.473Z,52.70
2019-05-09T10:41:28.051Z,52.10
2019-05-09T10:44:08.361Z,51.90
2019-05-09T10:46:52.917Z,52.00
2019-05-09T10:49:12.804Z,52.10
2019-05-09T10:51:42.021Z,52.40
2019-05-09T10:54:11.140Z,52.60
2019-05-09T10:56:40.261Z,52.80
2019-05-09T10:59:09.377Z,52.70
2019-05-09T11:01:38.541Z,52.70
2019-05-09T11:04:08.433Z,52.70
2019-05-09T11:06:38.423Z,52.70
2019-05-09T11:09:09.898Z,52.80
2019-05-09T11:11:39.101Z,52.80
2019-05-09T11:14:08.756Z,52.70
2019-05-09T11:16:45.835Z,52.80
2019-05-09T11:19:08.858Z,52.40
2019-05-09T11:21:39.263Z,51.90
2019-05-09T11:24:08.659Z,51.50
2019-05-09T11:26:39.894Z,51.30
2019-05-09T11:29:08.296Z,51.20
2019-05-09T11:31:38.396Z,51.20
2019-05-09T11:34:08.836Z,51.30
2019-05-09T11:36:38.346Z,51.50
2019-05-09T11:39:10.757Z,51.60
2019-05-09T11:41:39.007Z,51.40
2019-05-09T11:44:08.695Z,51.40
2019-05-09T11:46:38.365Z,51.30
2019-05-09T11:49:08.508Z,51.30
2019-05-09T11:51:37.832Z,51.30
2019-05-09T11:54:09.100Z,51.20
2019-05-09T11:56:38.392Z,50.70
2019-05-09T11:59:08.061Z,50.00
2019-05-09T12:01:39.479Z,49.70
2019-05-09T12:04:08.163Z,49.50
2019-05-09T12:06:38.376Z,49.40
2019-05-09T12:09:09.098Z,49.60
2019-05-09T12:11:41.297Z,49.60
2019-05-09T12:14:09.130Z,49.50
2019-05-09T12:16:38.177Z,49.20
2019-05-09T12:19:07.445Z,48.90
2019-05-09T12:21:46.653Z,48.50
2019-05-09T12:24:09.130Z,48.60
2019-05-09T12:26:39.065Z,48.90
2019-05-09T12:29:08.806Z,49.10
2019-05-09T12:31:38.853Z,49.20
2019-05-09T12:34:09.041Z,49.00
2019-05-09T12:36:39.874Z,48.70
2019-05-09T12:39:09.464Z,48.60
2019-05-09T12:41:38.703Z,48.50
2019-05-09T12:44:08.827Z,48.50
2019-05-09T12:46:39.314Z,48.90
2019-05-09T12:49:09.081Z,48.00
2019-05-09T12:51:38.333Z,47.70
2019-05-09T12:54:08.517Z,47.30
2019-05-09T12:56:38.646Z,47.10
2019-05-09T12:59:08.730Z,47.00
2019-05-09T13:01:40.562Z,46.50
2019-05-09T13:04:09.743Z,46.30
2019-05-09T13:06:39.074Z,46.20
2019-05-09T13:09:08.551Z,46.50
2019-05-09T13:11:39.061Z,46.40
2019-05-09T13:14:10.081Z,46.30
2019-05-09T13:16:49.248Z,45.80
2019-05-09T13:19:12.926Z,45.30
2019-05-09T13:21:41.726Z,45.00
2019-05-09T13:24:10.891Z,45.00
2019-05-09T13:26:39.733Z,45.10
2019-05-09T13:29:08.598Z,45.40
2019-05-09T13:31:39.285Z,45.40
2019-05-09T13:34:08.303Z,45.20
2019-05-09T13:36:37.230Z,44.80
2019-05-09T13:39:09.476Z,44.40
2019-05-09T13:41:39.571Z,44.20
2019-05-09T13:44:13.703Z,44.10
2019-05-09T13:46:39.162Z,43.90
2019-05-09T13:49:12.364Z,43.90
2019-05-09T13:51:49.222Z,44.00
2019-05-09T13:54:08.944Z,43.80
2019-05-09T13:56:37.736Z,43.60
2019-05-09T13:59:08.287Z,43.50
2019-05-09T14:01:37.823Z,43.40
2019-05-09T14:04:08.016Z,43.10
2019-05-09T14:06:38.838Z,43.00
2019-05-09T14:09:10.916Z,42.90
2019-05-09T14:11:39.783Z,43.10
2019-05-09T14:14:08.557Z,43.50
2019-05-09T14:16:38.895Z,43.50
2019-05-09T14:19:25.987Z,42.90
2019-05-09T14:21:38.567Z,41.90
2019-05-09T14:24:14.923Z,41.70
2019-05-09T14:26:37.891Z,41.20
2019-05-09T14:29:06.753Z,40.40
2019-05-09T14:31:35.624Z,41.00
2019-05-09T14:34:04.533Z,41.20
2019-05-09T14:36:34.089Z,41.20
2019-05-09T14:39:04.673Z,41.10
2019-05-09T14:41:33.516Z,41.10
2019-05-09T14:44:02.456Z,41.30
2019-05-09T14:46:31.229Z,41.60
2019-05-09T14:49:00.051Z,42.00
2019-05-09T14:51:28.884Z,42.30
2019-05-09T14:53:59.488Z,42.50
2019-05-09T14:56:28.337Z,42.60
2019-05-09T14:58:57.930Z,42.70
2019-05-09T15:01:28.738Z,42.70
2019-05-09T15:03:58.531Z,42.70
2019-05-09T15:06:28.369Z,42.60
2019-05-09T15:08:58.189Z,42.60
2019-05-09T15:11:28.120Z,42.70
2019-05-09T15:13:58.498Z,42.90
2019-05-09T15:16:28.192Z,43.10
2019-05-09T15:18:58.408Z,43.40
2019-05-09T15:21:27.499Z,43.60
2019-05-09T15:23:58.458Z,43.70
2019-05-09T15:26:27.718Z,43.90
2019-05-09T15:28:57.978Z,44.10
2019-05-09T15:31:28.678Z,44.30
2019-05-09T15:33:58.051Z,44.40
2019-05-09T15:36:27.106Z,44.40
2019-05-09T15:38:58.444Z,44.50
2019-05-09T15:41:27.762Z,44.70
2019-05-09T15:43:57.926Z,44.80
2019-05-09T15:46:31.600Z,44.60
2019-05-09T15:49:00.384Z,44.50
2019-05-09T15:51:32.018Z,44.40
2019-05-09T15:53:59.706Z,44.30
2019-05-09T15:56:28.896Z,44.20
2019-05-09T15:58:58.144Z,44.30
2019-05-09T16:01:27.855Z,44.40
2019-05-09T16:03:56.934Z,44.60
2019-05-09T16:06:32.601Z,44.70
2019-05-09T16:08:58.568Z,44.60
2019-05-09T16:11:28.539Z,44.30
2019-05-09T16:13:57.652Z,43.50
2019-05-09T16:16:28.668Z,42.70
2019-05-09T16:18:58.272Z,42.10
2019-05-09T16:21:27.808Z,41.90
2019-05-09T16:23:59.324Z,41.60
2019-05-09T16:26:29.108Z,41.50
2019-05-09T16:28:58.287Z,41.50
2019-05-09T16:31:27.868Z,41.60
2019-05-09T16:33:58.168Z,41.70
2019-05-09T16:36:28.257Z,41.50
2019-05-09T16:38:58.467Z,41.50
2019-05-09T16:41:28.102Z,41.30
2019-05-09T16:43:58.363Z,41.40
2019-05-09T16:46:28.578Z,41.90
2019-05-09T16:48:58.242Z,42.50
2019-05-09T16:51:28.619Z,43.30
2019-05-09T16:53:58.449Z,44.20
2019-05-09T16:56:28.709Z,45.00
2019-05-09T16:58:57.981Z,45.50
2019-05-09T17:01:28.430Z,46.20
2019-05-09T17:03:57.709Z,46.70
2019-05-09T17:06:27.482Z,47.10
2019-05-09T17:08:58.381Z,47.30
2019-05-09T17:11:27.914Z,47.70
2019-05-09T17:13:58.345Z,48.00
2019-05-09T17:16:28.427Z,48.30
2019-05-09T17:18:58.262Z,48.50
2019-05-09T17:21:38.290Z,48.60
2019-05-09T17:24:09.191Z,48.90
2019-05-09T17:26:38.272Z,49.10
2019-05-09T17:29:07.419Z,49.30
2019-05-09T17:31:38.353Z,49.50
2019-05-09T17:34:07.691Z,49.50
2019-05-09T17:36:38.502Z,49.60
2019-05-09T17:39:08.159Z,49.80
2019-05-09T17:41:37.888Z,49.90
2019-05-09T17:44:08.208Z,50.00
2019-05-09T17:46:38.632Z,50.20
2019-05-09T17:49:08.364Z,50.50
2019-05-09T17:51:37.728Z,50.70
2019-05-09T17:54:08.112Z,50.90
2019-05-09T17:56:38.065Z,51.10
2019-05-09T17:59:08.541Z,51.30
2019-05-09T18:01:37.973Z,51.50
2019-05-09T18:04:09.169Z,51.60
2019-05-09T18:06:38.188Z,51.70
2019-05-09T18:09:08.426Z,51.80
2019-05-09T18:11:37.944Z,52.00
2019-05-09T18:14:08.070Z,52.20
2019-05-09T18:16:38.932Z,52.30
2019-05-09T18:19:09.008Z,52.60
2019-05-09T18:21:50.231Z,52.60
2019-05-09T18:24:09.066Z,52.80
2019-05-09T18:26:39.897Z,53.00
2019-05-09T18:29:09.042Z,53.10
2019-05-09T18:31:39.773Z,53.30
2019-05-09T18:34:08.835Z,53.50
2019-05-09T18:36:38.281Z,53.70
2019-05-09T18:39:07.835Z,53.90
2019-05-09T18:41:37.076Z,54.20
2019-05-09T18:44:07.492Z,54.40
2019-05-09T18:46:36.749Z,54.60
2019-05-09T18:49:05.818Z,54.80
2019-05-09T18:51:34.962Z,54.90
2019-05-09T18:54:04.121Z,55.10
2019-05-09T18:56:33.252Z,55.20
2019-05-09T18:59:02.320Z,55.40
2019-05-09T19:01:31.455Z,55.60
2019-05-09T19:04:00.545Z,55.70
2019-05-09T19:06:29.669Z,56.00
2019-05-09T19:08:58.763Z,56.30
2019-05-09T19:11:27.968Z,56.40
2019-05-09T19:13:57.939Z,56.70
2019-05-09T19:16:28.727Z,56.90
2019-05-09T19:19:11.412Z,57.10
2019-05-09T19:21:42.158Z,57.30
2019-05-09T19:24:11.267Z,57.50
2019-05-09T19:26:40.328Z,57.80
2019-05-09T19:29:09.757Z,58.00
2019-05-09T19:31:39.706Z,58.20
2019-05-09T19:34:08.882Z,58.40
2019-05-09T19:36:38.102Z,58.60
2019-05-09T19:39:08.766Z,58.70
2019-05-09T19:41:38.042Z,58.90
2019-05-09T19:44:07.228Z,59.10
2019-05-09T19:46:36.298Z,59.30
2019-05-09T19:49:05.819Z,59.50
2019-05-09T19:51:34.939Z,59.60
2019-05-09T19:54:04.203Z,59.80
2019-05-09T19:56:33.328Z,59.80
2019-05-09T19:59:02.421Z,60.00
2019-05-09T20:01:31.548Z,60.20
2019-05-09T20:04:00.695Z,60.30
2019-05-09T20:06:29.839Z,60.50
2019-05-09T20:08:59.022Z,60.80
2019-05-09T20:11:47.609Z,61.00
2019-05-09T20:14:21.120Z,61.10
2019-05-09T20:16:55.908Z,61.40
2019-05-09T20:19:25.208Z,61.60
2019-05-09T20:21:54.685Z,61.80
2019-05-09T20:24:23.902Z,62.30
2019-05-09T20:26:53.024Z,62.10
2019-05-09T20:29:22.164Z,62.20
2019-05-09T20:31:51.448Z,62.30
2019-05-09T20:34:20.677Z,62.50
2019-05-09T20:36:49.815Z,62.50
2019-05-09T20:39:19.130Z,62.70
2019-05-09T20:41:48.440Z,62.80
2019-05-09T20:44:17.764Z,62.70
2019-05-09T20:46:47.008Z,62.70
2019-05-09T20:49:16.271Z,62.80
2019-05-09T20:51:45.514Z,62.80
2019-05-09T20:54:20.962Z,62.90
2019-05-09T20:56:45.725Z,63.00
2019-05-09T20:59:14.976Z,63.10
2019-05-09T21:01:44.239Z,63.10
2019-05-09T21:04:13.562Z,63.30
2019-05-09T21:06:42.824Z,63.50
2019-05-09T21:09:12.088Z,63.50
2019-05-09T21:11:41.440Z,64.50
2019-05-09T21:14:10.780Z,63.70
2019-05-09T21:16:40.033Z,63.90
2019-05-09T21:19:09.396Z,64.00
2019-05-09T21:21:38.667Z,64.10
2019-05-09T21:24:07.982Z,64.10
2019-05-09T21:26:37.232Z,64.30
2019-05-09T21:29:06.483Z,64.50
2019-05-09T21:31:35.912Z,64.90
2019-05-09T21:34:05.292Z,65.10
2019-05-09T21:36:34.360Z,65.60
2019-05-09T21:39:05.437Z,65.90
2019-05-09T21:41:34.640Z,66.30
2019-05-09T21:44:03.918Z,66.70
2019-05-09T21:46:33.015Z,67.50
2019-05-09T21:49:02.080Z,67.50
2019-05-09T21:51:31.175Z,67.90
2019-05-09T21:54:00.230Z,68.30
2019-05-09T21:56:29.297Z,68.70
2019-05-09T21:58:58.462Z,69.10
2019-05-09T22:01:27.601Z,69.40
2019-05-09T22:03:56.825Z,69.70
2019-05-09T22:06:25.886Z,70.00
2019-05-09T22:08:54.954Z,70.40
2019-05-09T22:11:24.027Z,70.00
2019-05-09T22:13:53.089Z,70.70
2019-05-09T22:16:22.231Z,70.90
2019-05-09T22:18:51.361Z,71.00
2019-05-09T22:21:23.395Z,71.30
2019-05-09T22:23:56.329Z,71.40
2019-05-09T22:26:23.306Z,71.50
2019-05-09T22:28:52.526Z,71.60
2019-05-09T22:31:21.589Z,72.50
2019-05-09T22:33:50.675Z,71.80
2019-05-09T22:36:19.744Z,72.20
2019-05-09T22:38:48.802Z,72.40
2019-05-09T22:41:17.874Z,72.50
2019-05-09T22:43:46.936Z,72.90
2019-05-09T22:46:16.095Z,73.20
2019-05-09T22:48:45.228Z,73.40
2019-05-09T22:51:14.389Z,73.60
2019-05-09T22:53:43.518Z,73.80
2019-05-09T22:56:13.065Z,73.90
2019-05-09T22:58:42.119Z,74.20
2019-05-09T23:01:11.269Z,74.40
2019-05-09T23:03:40.335Z,74.60
2019-05-09T23:06:09.401Z,74.90
2019-05-09T23:08:38.468Z,75.20
2019-05-09T23:11:07.596Z,75.40
2019-05-09T23:13:52.008Z,75.70
2019-05-09T23:16:22.384Z,75.70
2019-05-09T23:18:51.515Z,76.00
2019-05-09T23:21:20.951Z,76.20
2019-05-09T23:24:03.629Z,76.40
2019-05-09T23:26:32.876Z,77.00
2019-05-09T23:29:01.988Z,76.80
2019-05-09T23:31:38.777Z,76.90
2019-05-09T23:34:07.829Z,77.00
2019-05-09T23:36:36.894Z,77.20
2019-05-09T23:39:17.190Z,77.50
2019-05-09T23:41:46.246Z,77.70
2019-05-09T23:44:15.422Z,77.90
2019-05-09T23:46:44.556Z,77.30
2019-05-09T23:49:13.783Z,78.00
2019-05-09T23:51:45.896Z,78.20
2019-05-09T23:54:48.100Z,78.30
2019-05-09T23:57:28.862Z,78.50
